sensor_id;sensor_type;location;lat;lon;timestamp;P1;durP1;ratioP1;P2;durP2;ratioP2
35150;SDS011;55720;51.972;4.624;2022-12-07T00:02:21;12.02;;;2.70;;
35150;SDS011;55720;51.972;4.624;2022-12-07T00:04:48;4.88;;;1.90;;
35150;SDS011;55720;51.972;4.624;2022-12-07T00:07:14;5.35;;;1.80;;
35150;SDS011;55720;51.972;4.624;2022-12-07T00:09:39;3.75;;;1.40;;
35150;SDS011;55720;51.972;4.624;2022-12-07T00:12:06;7.45;;;1.67;;
35150;SDS011;55720;51.972;4.624;2022-12-07T00:14:32;8.32;;;1.73;;
35150;SDS011;55720;51.972;4.624;2022-12-07T00:16:58;5.40;;;1.70;;
35150;SDS011;55720;51.972;4.624;2022-12-07T00:19:23;6.38;;;1.58;;
35150;SDS011;55720;51.972;4.624;2022-12-07T00:21:49;6.57;;;1.73;;
35150;SDS011;55720;51.972;4.624;2022-12-07T00:24:14;5.97;;;1.50;;
35150;SDS011;55720;51.972;4.624;2022-12-07T00:26:40;3.55;;;2.42;;
35150;SDS011;55720;51.972;4.624;2022-12-07T00:29:07;5.30;;;1.52;;
35150;SDS011;55720;51.972;4.624;2022-12-07T00:31:37;7.95;;;1.80;;
35150;SDS011;55720;51.972;4.624;2022-12-07T00:34:04;4.55;;;1.42;;
35150;SDS011;55720;51.972;4.624;2022-12-07T00:36:30;11.95;;;1.60;;
35150;SDS011;55720;51.972;4.624;2022-12-07T00:38:57;6.38;;;1.33;;
35150;SDS011;55720;51.972;4.624;2022-12-07T00:41:24;5.25;;;1.58;;
35150;SDS011;55720;51.972;4.624;2022-12-07T00:43:50;3.70;;;0.85;;
35150;SDS011;55720;51.972;4.624;2022-12-07T00:46:17;7.00;;;1.30;;
35150;SDS011;55720;51.972;4.624;2022-12-07T00:48:44;4.43;;;1.30;;
35150;SDS011;55720;51.972;4.624;2022-12-07T00:51:10;5.65;;;1.00;;
35150;SDS011;55720;51.972;4.624;2022-12-07T00:53:37;3.55;;;1.10;;
35150;SDS011;55720;51.972;4.624;2022-12-07T00:56:06;4.40;;;1.40;;
35150;SDS011;55720;51.972;4.624;2022-12-07T00:58:39;3.90;;;1.40;;
35150;SDS011;55720;51.972;4.624;2022-12-07T01:01:05;7.45;;;1.35;;
35150;SDS011;55720;51.972;4.624;2022-12-07T01:03:31;3.15;;;1.30;;
35150;SDS011;55720;51.972;4.624;2022-12-07T01:05:57;2.05;;;1.60;;
35150;SDS011;55720;51.972;4.624;2022-12-07T01:08:24;5.63;;;1.50;;
35150;SDS011;55720;51.972;4.624;2022-12-07T01:10:57;9.77;;;1.35;;
35150;SDS011;55720;51.972;4.624;2022-12-07T01:13:27;6.80;;;1.67;;
35150;SDS011;55720;51.972;4.624;2022-12-07T01:15:55;9.50;;;1.02;;
35150;SDS011;55720;51.972;4.624;2022-12-07T01:18:22;7.38;;;1.00;;
35150;SDS011;55720;51.972;4.624;2022-12-07T01:20:56;9.05;;;1.17;;
35150;SDS011;55720;51.972;4.624;2022-12-07T01:23:31;6.68;;;1.55;;
35150;SDS011;55720;51.972;4.624;2022-12-07T01:25:58;7.90;;;0.90;;
35150;SDS011;55720;51.972;4.624;2022-12-07T01:28:25;7.75;;;0.93;;
35150;SDS011;55720;51.972;4.624;2022-12-07T01:30:55;7.05;;;0.95;;
35150;SDS011;55720;51.972;4.624;2022-12-07T01:33:32;5.32;;;0.90;;
35150;SDS011;55720;51.972;4.624;2022-12-07T01:36:00;8.13;;;1.17;;
35150;SDS011;55720;51.972;4.624;2022-12-07T01:38:30;5.75;;;0.88;;
35150;SDS011;55720;51.972;4.624;2022-12-07T01:40:57;6.65;;;0.95;;
35150;SDS011;55720;51.972;4.624;2022-12-07T01:43:24;4.18;;;1.27;;
35150;SDS011;55720;51.972;4.624;2022-12-07T01:45:52;10.07;;;1.20;;
35150;SDS011;55720;51.972;4.624;2022-12-07T01:48:18;5.75;;;0.95;;
35150;SDS011;55720;51.972;4.624;2022-12-07T01:50:49;3.78;;;0.73;;
35150;SDS011;55720;51.972;4.624;2022-12-07T01:53:18;7.45;;;1.10;;
35150;SDS011;55720;51.972;4.624;2022-12-07T01:55:45;3.70;;;0.90;;
35150;SDS011;55720;51.972;4.624;2022-12-07T01:58:14;4.75;;;1.27;;
35150;SDS011;55720;51.972;4.624;2022-12-07T02:00:40;2.13;;;0.80;;
35150;SDS011;55720;51.972;4.624;2022-12-07T02:03:07;3.80;;;0.80;;
35150;SDS011;55720;51.972;4.624;2022-12-07T02:05:37;9.30;;;1.13;;
35150;SDS011;55720;51.972;4.624;2022-12-07T02:08:05;4.00;;;0.90;;
35150;SDS011;55720;51.972;4.624;2022-12-07T02:10:31;5.97;;;0.70;;
35150;SDS011;55720;51.972;4.624;2022-12-07T02:13:07;6.57;;;0.68;;
35150;SDS011;55720;51.972;4.624;2022-12-07T02:24:14;3.05;;;0.75;;
35150;SDS011;55720;51.972;4.624;2022-12-07T02:29:33;4.97;;;0.60;;
35150;SDS011;55720;51.972;4.624;2022-12-07T02:32:10;4.43;;;0.63;;
35150;SDS011;55720;51.972;4.624;2022-12-07T02:34:51;7.13;;;0.57;;
35150;SDS011;55720;51.972;4.624;2022-12-07T02:40:41;3.72;;;0.63;;
35150;SDS011;55720;51.972;4.624;2022-12-07T02:43:16;2.67;;;0.52;;
35150;SDS011;55720;51.972;4.624;2022-12-07T02:45:46;6.63;;;0.80;;
35150;SDS011;55720;51.972;4.624;2022-12-07T02:48:13;4.22;;;0.70;;
35150;SDS011;55720;51.972;4.624;2022-12-07T02:50:45;6.75;;;1.00;;
35150;SDS011;55720;51.972;4.624;2022-12-07T02:53:30;5.45;;;0.68;;
35150;SDS011;55720;51.972;4.624;2022-12-07T02:55:58;3.60;;;0.38;;
35150;SDS011;55720;51.972;4.624;2022-12-07T02:58:41;7.07;;;0.60;;
35150;SDS011;55720;51.972;4.624;2022-12-07T03:01:29;5.03;;;0.60;;
35150;SDS011;55720;51.972;4.624;2022-12-07T03:07:26;7.13;;;0.70;;
35150;SDS011;55720;51.972;4.624;2022-12-07T03:15:18;5.20;;;0.60;;
35150;SDS011;55720;51.972;4.624;2022-12-07T03:17:46;4.47;;;0.70;;
35150;SDS011;55720;51.972;4.624;2022-12-07T03:20:15;6.95;;;0.52;;
35150;SDS011;55720;51.972;4.624;2022-12-07T03:25:12;1.55;;;0.40;;
35150;SDS011;55720;51.972;4.624;2022-12-07T03:30:27;5.43;;;0.65;;
35150;SDS011;55720;51.972;4.624;2022-12-07T03:33:03;4.25;;;0.45;;
35150;SDS011;55720;51.972;4.624;2022-12-07T03:38:27;3.90;;;0.60;;
35150;SDS011;55720;51.972;4.624;2022-12-07T03:41:05;6.22;;;0.80;;
35150;SDS011;55720;51.972;4.624;2022-12-07T03:43:34;6.07;;;0.75;;
35150;SDS011;55720;51.972;4.624;2022-12-07T03:46:49;0.73;;;0.40;;
35150;SDS011;55720;51.972;4.624;2022-12-07T03:49:05;7.07;;;0.52;;
35150;SDS011;55720;51.972;4.624;2022-12-07T03:54:24;5.20;;;0.90;;
35150;SDS011;55720;51.972;4.624;2022-12-07T03:56:55;2.70;;;0.70;;
35150;SDS011;55720;51.972;4.624;2022-12-07T03:59:22;3.58;;;0.68;;
35150;SDS011;55720;51.972;4.624;2022-12-07T04:01:55;5.28;;;0.65;;
35150;SDS011;55720;51.972;4.624;2022-12-07T04:04:23;1.15;;;0.52;;
35150;SDS011;55720;51.972;4.624;2022-12-07T04:06:49;4.05;;;0.70;;
35150;SDS011;55720;51.972;4.624;2022-12-07T04:09:15;2.92;;;0.50;;
35150;SDS011;55720;51.972;4.624;2022-12-07T04:11:41;3.28;;;0.60;;
35150;SDS011;55720;51.972;4.624;2022-12-07T04:14:07;4.32;;;0.77;;
35150;SDS011;55720;51.972;4.624;2022-12-07T04:16:48;5.53;;;0.60;;
35150;SDS011;55720;51.972;4.624;2022-12-07T04:19:16;5.57;;;0.80;;
35150;SDS011;55720;51.972;4.624;2022-12-07T04:21:43;3.80;;;0.60;;
35150;SDS011;55720;51.972;4.624;2022-12-07T04:24:09;4.05;;;0.70;;
35150;SDS011;55720;51.972;4.624;2022-12-07T04:26:35;4.60;;;0.68;;
35150;SDS011;55720;51.972;4.624;2022-12-07T04:29:01;4.47;;;0.55;;
35150;SDS011;55720;51.972;4.624;2022-12-07T04:31:26;3.63;;;0.60;;
35150;SDS011;55720;51.972;4.624;2022-12-07T04:33:51;3.50;;;0.50;;
35150;SDS011;55720;51.972;4.624;2022-12-07T04:36:17;8.30;;;0.93;;
35150;SDS011;55720;51.972;4.624;2022-12-07T04:38:44;2.72;;;0.52;;
35150;SDS011;55720;51.972;4.624;2022-12-07T04:41:10;3.63;;;0.65;;
35150;SDS011;55720;51.972;4.624;2022-12-07T04:43:35;5.80;;;0.98;;
35150;SDS011;55720;51.972;4.624;2022-12-07T04:46:01;6.07;;;0.70;;
35150;SDS011;55720;51.972;4.624;2022-12-07T04:48:27;7.35;;;0.77;;
35150;SDS011;55720;51.972;4.624;2022-12-07T04:50:53;7.30;;;1.02;;
35150;SDS011;55720;51.972;4.624;2022-12-07T04:53:18;4.78;;;0.60;;
35150;SDS011;55720;51.972;4.624;2022-12-07T04:55:44;7.93;;;0.98;;
35150;SDS011;55720;51.972;4.624;2022-12-07T04:58:10;10.20;;;0.77;;
35150;SDS011;55720;51.972;4.624;2022-12-07T05:00:36;9.90;;;0.80;;
35150;SDS011;55720;51.972;4.624;2022-12-07T05:03:02;9.00;;;0.65;;
35150;SDS011;55720;51.972;4.624;2022-12-07T05:05:27;7.97;;;0.70;;
35150;SDS011;55720;51.972;4.624;2022-12-07T05:07:53;3.10;;;0.43;;
35150;SDS011;55720;51.972;4.624;2022-12-07T05:10:18;4.82;;;0.70;;
35150;SDS011;55720;51.972;4.624;2022-12-07T05:12:44;5.65;;;0.75;;
35150;SDS011;55720;51.972;4.624;2022-12-07T05:15:10;5.63;;;0.70;;
35150;SDS011;55720;51.972;4.624;2022-12-07T05:17:36;6.40;;;0.60;;
35150;SDS011;55720;51.972;4.624;2022-12-07T05:20:01;4.38;;;0.82;;
35150;SDS011;55720;51.972;4.624;2022-12-07T05:22:27;5.95;;;0.80;;
35150;SDS011;55720;51.972;4.624;2022-12-07T05:24:56;3.38;;;0.50;;
35150;SDS011;55720;51.972;4.624;2022-12-07T05:27:21;7.78;;;1.23;;
35150;SDS011;55720;51.972;4.624;2022-12-07T05:29:47;5.95;;;1.08;;
35150;SDS011;55720;51.972;4.624;2022-12-07T05:32:12;7.10;;;0.68;;
35150;SDS011;55720;51.972;4.624;2022-12-07T05:34:38;6.47;;;0.88;;
35150;SDS011;55720;51.972;4.624;2022-12-07T05:37:03;5.68;;;0.90;;
35150;SDS011;55720;51.972;4.624;2022-12-07T05:39:29;5.88;;;1.00;;
35150;SDS011;55720;51.972;4.624;2022-12-07T05:41:54;2.30;;;0.75;;
35150;SDS011;55720;51.972;4.624;2022-12-07T05:44:40;5.22;;;0.68;;
35150;SDS011;55720;51.972;4.624;2022-12-07T05:47:08;8.30;;;0.70;;
35150;SDS011;55720;51.972;4.624;2022-12-07T05:49:33;4.32;;;0.75;;
35150;SDS011;55720;51.972;4.624;2022-12-07T05:51:59;6.72;;;1.00;;
35150;SDS011;55720;51.972;4.624;2022-12-07T05:54:24;6.25;;;0.80;;
35150;SDS011;55720;51.972;4.624;2022-12-07T05:56:50;2.80;;;0.80;;
35150;SDS011;55720;51.972;4.624;2022-12-07T05:59:15;5.60;;;0.93;;
35150;SDS011;55720;51.972;4.624;2022-12-07T06:01:47;5.53;;;0.90;;
35150;SDS011;55720;51.972;4.624;2022-12-07T06:04:16;7.03;;;0.95;;
35150;SDS011;55720;51.972;4.624;2022-12-07T06:06:42;7.43;;;0.85;;
35150;SDS011;55720;51.972;4.624;2022-12-07T06:09:07;6.78;;;0.85;;
35150;SDS011;55720;51.972;4.624;2022-12-07T06:11:33;7.50;;;1.10;;
35150;SDS011;55720;51.972;4.624;2022-12-07T06:14:17;5.75;;;0.88;;
35150;SDS011;55720;51.972;4.624;2022-12-07T06:16:43;4.53;;;1.20;;
35150;SDS011;55720;51.972;4.624;2022-12-07T06:19:08;8.25;;;1.10;;
35150;SDS011;55720;51.972;4.624;2022-12-07T06:21:34;4.60;;;1.20;;
35150;SDS011;55720;51.972;4.624;2022-12-07T06:23:59;9.30;;;0.98;;
35150;SDS011;55720;51.972;4.624;2022-12-07T06:26:24;3.75;;;0.68;;
35150;SDS011;55720;51.972;4.624;2022-12-07T06:28:50;3.40;;;0.70;;
35150;SDS011;55720;51.972;4.624;2022-12-07T06:31:15;5.70;;;0.77;;
35150;SDS011;55720;51.972;4.624;2022-12-07T06:33:41;5.35;;;0.98;;
35150;SDS011;55720;51.972;4.624;2022-12-07T06:36:07;6.25;;;1.60;;
35150;SDS011;55720;51.972;4.624;2022-12-07T06:38:33;7.47;;;1.00;;
35150;SDS011;55720;51.972;4.624;2022-12-07T06:40:59;5.35;;;1.10;;
35150;SDS011;55720;51.972;4.624;2022-12-07T06:43:24;4.75;;;0.85;;
35150;SDS011;55720;51.972;4.624;2022-12-07T06:45:50;8.23;;;1.25;;
35150;SDS011;55720;51.972;4.624;2022-12-07T06:48:15;8.05;;;1.42;;
35150;SDS011;55720;51.972;4.624;2022-12-07T06:50:41;1.60;;;0.95;;
35150;SDS011;55720;51.972;4.624;2022-12-07T06:53:09;4.38;;;0.82;;
35150;SDS011;55720;51.972;4.624;2022-12-07T06:55:35;4.78;;;1.00;;
35150;SDS011;55720;51.972;4.624;2022-12-07T06:58:00;4.63;;;0.90;;
35150;SDS011;55720;51.972;4.624;2022-12-07T07:00:26;7.03;;;1.30;;
35150;SDS011;55720;51.972;4.624;2022-12-07T07:02:52;7.68;;;1.40;;
35150;SDS011;55720;51.972;4.624;2022-12-07T07:05:17;10.35;;;2.03;;
35150;SDS011;55720;51.972;4.624;2022-12-07T07:07:42;9.57;;;1.40;;
35150;SDS011;55720;51.972;4.624;2022-12-07T07:10:08;10.57;;;1.55;;
35150;SDS011;55720;51.972;4.624;2022-12-07T07:12:34;6.40;;;1.25;;
35150;SDS011;55720;51.972;4.624;2022-12-07T07:14:59;7.35;;;1.55;;
35150;SDS011;55720;51.972;4.624;2022-12-07T07:17:24;6.32;;;1.70;;
35150;SDS011;55720;51.972;4.624;2022-12-07T07:19:50;5.60;;;1.20;;
35150;SDS011;55720;51.972;4.624;2022-12-07T07:22:15;9.05;;;1.55;;
35150;SDS011;55720;51.972;4.624;2022-12-07T07:24:40;6.72;;;1.50;;
35150;SDS011;55720;51.972;4.624;2022-12-07T07:27:06;4.57;;;1.30;;
35150;SDS011;55720;51.972;4.624;2022-12-07T07:29:31;7.53;;;1.67;;
35150;SDS011;55720;51.972;4.624;2022-12-07T07:31:56;2.90;;;1.13;;
35150;SDS011;55720;51.972;4.624;2022-12-07T07:34:22;6.72;;;1.48;;
35150;SDS011;55720;51.972;4.624;2022-12-07T07:36:47;7.13;;;1.70;;
35150;SDS011;55720;51.972;4.624;2022-12-07T07:39:12;8.38;;;1.80;;
35150;SDS011;55720;51.972;4.624;2022-12-07T07:41:38;6.85;;;1.60;;
35150;SDS011;55720;51.972;4.624;2022-12-07T07:44:03;8.25;;;1.60;;
35150;SDS011;55720;51.972;4.624;2022-12-07T07:46:29;12.10;;;2.30;;
35150;SDS011;55720;51.972;4.624;2022-12-07T07:48:55;7.18;;;2.13;;
35150;SDS011;55720;51.972;4.624;2022-12-07T07:51:20;9.75;;;2.20;;
35150;SDS011;55720;51.972;4.624;2022-12-07T07:53:46;6.70;;;1.75;;
35150;SDS011;55720;51.972;4.624;2022-12-07T07:56:11;6.55;;;1.90;;
35150;SDS011;55720;51.972;4.624;2022-12-07T07:58:36;7.25;;;2.40;;
35150;SDS011;55720;51.972;4.624;2022-12-07T08:01:04;11.35;;;2.50;;
35150;SDS011;55720;51.972;4.624;2022-12-07T08:03:30;5.43;;;2.40;;
35150;SDS011;55720;51.972;4.624;2022-12-07T08:05:56;5.32;;;2.67;;
35150;SDS011;55720;51.972;4.624;2022-12-07T08:08:21;5.43;;;3.15;;
35150;SDS011;55720;51.972;4.624;2022-12-07T08:10:47;11.65;;;2.90;;
35150;SDS011;55720;51.972;4.624;2022-12-07T08:13:13;8.45;;;3.75;;
35150;SDS011;55720;51.972;4.624;2022-12-07T08:15:45;12.35;;;3.88;;
35150;SDS011;55720;51.972;4.624;2022-12-07T08:18:12;9.02;;;3.47;;
35150;SDS011;55720;51.972;4.624;2022-12-07T08:20:39;15.80;;;4.20;;
35150;SDS011;55720;51.972;4.624;2022-12-07T08:23:07;8.63;;;3.65;;
35150;SDS011;55720;51.972;4.624;2022-12-07T08:25:33;11.60;;;3.20;;
35150;SDS011;55720;51.972;4.624;2022-12-07T08:28:00;10.00;;;3.50;;
35150;SDS011;55720;51.972;4.624;2022-12-07T08:30:26;9.88;;;3.60;;
35150;SDS011;55720;51.972;4.624;2022-12-07T08:32:52;12.70;;;3.90;;
35150;SDS011;55720;51.972;4.624;2022-12-07T08:35:17;5.80;;;3.22;;
35150;SDS011;55720;51.972;4.624;2022-12-07T08:37:43;8.82;;;4.00;;
35150;SDS011;55720;51.972;4.624;2022-12-07T08:40:09;11.27;;;3.92;;
35150;SDS011;55720;51.972;4.624;2022-12-07T08:42:40;9.80;;;3.38;;
35150;SDS011;55720;51.972;4.624;2022-12-07T08:45:07;9.35;;;3.85;;
35150;SDS011;55720;51.972;4.624;2022-12-07T08:47:35;11.38;;;3.53;;
35150;SDS011;55720;51.972;4.624;2022-12-07T08:50:03;12.80;;;3.90;;
35150;SDS011;55720;51.972;4.624;2022-12-07T08:52:32;8.82;;;3.90;;
35150;SDS011;55720;51.972;4.624;2022-12-07T08:54:58;9.35;;;3.80;;
35150;SDS011;55720;51.972;4.624;2022-12-07T08:57:26;10.32;;;3.40;;
35150;SDS011;55720;51.972;4.624;2022-12-07T08:59:53;6.90;;;2.65;;
35150;SDS011;55720;51.972;4.624;2022-12-07T09:02:18;5.80;;;2.85;;
35150;SDS011;55720;51.972;4.624;2022-12-07T09:04:44;5.03;;;2.53;;
35150;SDS011;55720;51.972;4.624;2022-12-07T09:07:09;9.43;;;3.08;;
35150;SDS011;55720;51.972;4.624;2022-12-07T09:09:35;6.50;;;2.53;;
35150;SDS011;55720;51.972;4.624;2022-12-07T09:12:00;10.68;;;2.55;;
35150;SDS011;55720;51.972;4.624;2022-12-07T09:14:26;15.90;;;2.63;;
35150;SDS011;55720;51.972;4.624;2022-12-07T09:16:51;13.35;;;2.88;;
35150;SDS011;55720;51.972;4.624;2022-12-07T09:19:16;9.50;;;2.83;;
35150;SDS011;55720;51.972;4.624;2022-12-07T09:21:42;9.45;;;3.35;;
35150;SDS011;55720;51.972;4.624;2022-12-07T09:24:07;6.63;;;2.60;;
35150;SDS011;55720;51.972;4.624;2022-12-07T09:26:34;9.63;;;2.53;;
35150;SDS011;55720;51.972;4.624;2022-12-07T09:29:00;10.18;;;2.55;;
35150;SDS011;55720;51.972;4.624;2022-12-07T09:31:27;9.77;;;2.10;;
35150;SDS011;55720;51.972;4.624;2022-12-07T09:33:53;5.05;;;1.55;;
35150;SDS011;55720;51.972;4.624;2022-12-07T09:36:20;5.85;;;1.45;;
35150;SDS011;55720;51.972;4.624;2022-12-07T09:38:46;10.00;;;1.45;;
35150;SDS011;55720;51.972;4.624;2022-12-07T09:41:11;9.73;;;2.08;;
35150;SDS011;55720;51.972;4.624;2022-12-07T09:43:36;6.88;;;1.83;;
35150;SDS011;55720;51.972;4.624;2022-12-07T09:46:05;6.72;;;1.83;;
35150;SDS011;55720;51.972;4.624;2022-12-07T09:48:34;8.40;;;1.83;;
35150;SDS011;55720;51.972;4.624;2022-12-07T09:51:02;5.63;;;1.33;;
35150;SDS011;55720;51.972;4.624;2022-12-07T09:53:38;10.13;;;1.95;;
35150;SDS011;55720;51.972;4.624;2022-12-07T09:56:04;8.95;;;1.85;;
35150;SDS011;55720;51.972;4.624;2022-12-07T09:58:30;5.93;;;1.60;;
35150;SDS011;55720;51.972;4.624;2022-12-07T10:03:32;3.42;;;1.45;;
35150;SDS011;55720;51.972;4.624;2022-12-07T10:05:57;10.60;;;1.75;;
35150;SDS011;55720;51.972;4.624;2022-12-07T10:08:24;5.80;;;2.30;;
35150;SDS011;55720;51.972;4.624;2022-12-07T10:10:54;8.20;;;1.98;;
35150;SDS011;55720;51.972;4.624;2022-12-07T10:13:43;3.33;;;1.92;;
35150;SDS011;55720;51.972;4.624;2022-12-07T10:18:51;10.23;;;1.63;;
35150;SDS011;55720;51.972;4.624;2022-12-07T10:21:18;6.75;;;1.60;;
35150;SDS011;55720;51.972;4.624;2022-12-07T10:24:01;7.57;;;1.65;;
35150;SDS011;55720;51.972;4.624;2022-12-07T10:26:37;7.45;;;1.67;;
35150;SDS011;55720;51.972;4.624;2022-12-07T10:29:15;4.30;;;1.03;;
35150;SDS011;55720;51.972;4.624;2022-12-07T10:31:43;8.98;;;1.60;;
35150;SDS011;55720;51.972;4.624;2022-12-07T10:34:23;4.70;;;1.60;;
35150;SDS011;55720;51.972;4.624;2022-12-07T10:36:51;9.68;;;1.73;;
35150;SDS011;55720;51.972;4.624;2022-12-07T10:39:19;6.53;;;1.38;;
35150;SDS011;55720;51.972;4.624;2022-12-07T10:44:21;7.15;;;1.20;;
35150;SDS011;55720;51.972;4.624;2022-12-07T10:47:02;13.93;;;1.65;;
35150;SDS011;55720;51.972;4.624;2022-12-07T11:05:50;8.75;;;2.60;;
35150;SDS011;55720;51.972;4.624;2022-12-07T11:11:19;9.52;;;1.60;;
35150;SDS011;55720;51.972;4.624;2022-12-07T11:14:11;9.53;;;1.50;;
35150;SDS011;55720;51.972;4.624;2022-12-07T11:16:52;7.25;;;1.20;;
35150;SDS011;55720;51.972;4.624;2022-12-07T11:19:29;4.13;;;1.13;;
35150;SDS011;55720;51.972;4.624;2022-12-07T11:22:36;3.22;;;1.30;;
35150;SDS011;55720;51.972;4.624;2022-12-07T11:28:11;9.13;;;1.42;;
35150;SDS011;55720;51.972;4.624;2022-12-07T11:39:02;5.10;;;0.80;;
35150;SDS011;55720;51.972;4.624;2022-12-07T11:41:35;7.35;;;0.80;;
35150;SDS011;55720;51.972;4.624;2022-12-07T11:44:07;11.35;;;1.00;;
35150;SDS011;55720;51.972;4.624;2022-12-07T11:46:56;7.32;;;0.70;;
35150;SDS011;55720;51.972;4.624;2022-12-07T11:49:45;1.85;;;0.28;;
35150;SDS011;55720;51.972;4.624;2022-12-07T11:52:43;1.70;;;0.30;;
35150;SDS011;55720;51.972;4.624;2022-12-07T11:55:13;2.60;;;0.65;;
35150;SDS011;55720;51.972;4.624;2022-12-07T11:57:44;1.17;;;0.30;;
35150;SDS011;55720;51.972;4.624;2022-12-07T12:00:15;2.42;;;0.50;;
35150;SDS011;55720;51.972;4.624;2022-12-07T12:05:35;5.07;;;0.30;;
35150;SDS011;55720;51.972;4.624;2022-12-07T12:08:25;2.58;;;0.30;;
35150;SDS011;55720;51.972;4.624;2022-12-07T12:10:56;1.08;;;0.17;;
35150;SDS011;55720;51.972;4.624;2022-12-07T12:13:27;2.53;;;0.43;;
35150;SDS011;55720;51.972;4.624;2022-12-07T12:16:39;3.53;;;0.50;;
35150;SDS011;55720;51.972;4.624;2022-12-07T12:19:27;1.13;;;0.30;;
35150;SDS011;55720;51.972;4.624;2022-12-07T12:22:34;4.15;;;0.30;;
35150;SDS011;55720;51.972;4.624;2022-12-07T12:25:05;3.42;;;0.47;;
35150;SDS011;55720;51.972;4.624;2022-12-07T12:27:39;3.20;;;0.60;;
35150;SDS011;55720;51.972;4.624;2022-12-07T12:30:06;3.22;;;0.52;;
35150;SDS011;55720;51.972;4.624;2022-12-07T12:32:49;5.97;;;0.90;;
35150;SDS011;55720;51.972;4.624;2022-12-07T12:37:46;3.70;;;0.40;;
35150;SDS011;55720;51.972;4.624;2022-12-07T12:42:44;3.25;;;0.30;;
35150;SDS011;55720;51.972;4.624;2022-12-07T12:45:25;2.92;;;0.30;;
35150;SDS011;55720;51.972;4.624;2022-12-07T12:48:36;1.00;;;0.30;;
35150;SDS011;55720;51.972;4.624;2022-12-07T12:51:35;2.92;;;0.30;;
35150;SDS011;55720;51.972;4.624;2022-12-07T12:54:08;2.05;;;0.30;;
35150;SDS011;55720;51.972;4.624;2022-12-07T13:20:56;0.95;;;0.50;;
35150;SDS011;55720;51.972;4.624;2022-12-07T13:24:07;5.15;;;0.60;;
35150;SDS011;55720;51.972;4.624;2022-12-07T13:26:15;4.78;;;0.47;;
35150;SDS011;55720;51.972;4.624;2022-12-07T13:28:51;1.95;;;0.38;;
35150;SDS011;55720;51.972;4.624;2022-12-07T13:31:31;0.80;;;0.35;;
35150;SDS011;55720;51.972;4.624;2022-12-07T13:33:58;5.38;;;0.50;;
35150;SDS011;55720;51.972;4.624;2022-12-07T13:36:25;5.88;;;0.57;;
35150;SDS011;55720;51.972;4.624;2022-12-07T13:38:58;1.52;;;0.32;;
35150;SDS011;55720;51.972;4.624;2022-12-07T13:41:25;3.95;;;0.63;;
35150;SDS011;55720;51.972;4.624;2022-12-07T13:44:00;4.03;;;0.52;;
35150;SDS011;55720;51.972;4.624;2022-12-07T13:46:48;1.52;;;0.40;;
35150;SDS011;55720;51.972;4.624;2022-12-07T13:49:28;1.95;;;0.30;;
35150;SDS011;55720;51.972;4.624;2022-12-07T13:52:06;4.47;;;0.40;;
35150;SDS011;55720;51.972;4.624;2022-12-07T13:54:43;1.83;;;0.43;;
35150;SDS011;55720;51.972;4.624;2022-12-07T13:57:09;1.42;;;0.22;;
35150;SDS011;55720;51.972;4.624;2022-12-07T13:59:34;1.17;;;0.28;;
35150;SDS011;55720;51.972;4.624;2022-12-07T14:02:02;1.83;;;0.30;;
35150;SDS011;55720;51.972;4.624;2022-12-07T14:04:42;2.47;;;0.45;;
35150;SDS011;55720;51.972;4.624;2022-12-07T14:07:24;2.75;;;0.25;;
35150;SDS011;55720;51.972;4.624;2022-12-07T14:09:56;2.22;;;0.30;;
35150;SDS011;55720;51.972;4.624;2022-12-07T14:12:26;2.78;;;0.28;;
35150;SDS011;55720;51.972;4.624;2022-12-07T14:14:53;3.60;;;1.08;;
35150;SDS011;55720;51.972;4.624;2022-12-07T14:17:20;4.35;;;0.32;;
35150;SDS011;55720;51.972;4.624;2022-12-07T14:22:27;4.65;;;0.30;;
35150;SDS011;55720;51.972;4.624;2022-12-07T14:24:58;3.13;;;0.60;;
35150;SDS011;55720;51.972;4.624;2022-12-07T14:27:29;4.80;;;0.50;;
35150;SDS011;55720;51.972;4.624;2022-12-07T14:29:59;9.20;;;1.13;;
35150;SDS011;55720;51.972;4.624;2022-12-07T14:32:27;5.53;;;0.43;;
35150;SDS011;55720;51.972;4.624;2022-12-07T14:35:16;5.25;;;0.70;;
35150;SDS011;55720;51.972;4.624;2022-12-07T14:37:42;3.42;;;0.50;;
35150;SDS011;55720;51.972;4.624;2022-12-07T14:40:12;2.70;;;0.85;;
35150;SDS011;55720;51.972;4.624;2022-12-07T14:43:02;6.47;;;0.75;;
35150;SDS011;55720;51.972;4.624;2022-12-07T14:45:30;5.32;;;0.50;;
35150;SDS011;55720;51.972;4.624;2022-12-07T14:47:55;6.35;;;0.60;;
35150;SDS011;55720;51.972;4.624;2022-12-07T14:50:21;5.03;;;0.70;;
35150;SDS011;55720;51.972;4.624;2022-12-07T14:53:31;5.93;;;0.90;;
35150;SDS011;55720;51.972;4.624;2022-12-07T14:55:40;9.88;;;0.80;;
35150;SDS011;55720;51.972;4.624;2022-12-07T14:58:05;4.10;;;0.70;;
35150;SDS011;55720;51.972;4.624;2022-12-07T15:00:31;3.25;;;0.80;;
35150;SDS011;55720;51.972;4.624;2022-12-07T15:02:58;3.47;;;1.40;;
35150;SDS011;55720;51.972;4.624;2022-12-07T15:05:24;7.38;;;1.15;;
35150;SDS011;55720;51.972;4.624;2022-12-07T15:07:49;3.40;;;1.25;;
35150;SDS011;55720;51.972;4.624;2022-12-07T15:10:17;6.53;;;1.42;;
35150;SDS011;55720;51.972;4.624;2022-12-07T15:12:45;4.22;;;1.60;;
35150;SDS011;55720;51.972;4.624;2022-12-07T15:15:11;4.32;;;1.00;;
35150;SDS011;55720;51.972;4.624;2022-12-07T15:17:38;6.25;;;1.45;;
35150;SDS011;55720;51.972;4.624;2022-12-07T15:20:03;8.68;;;1.85;;
35150;SDS011;55720;51.972;4.624;2022-12-07T15:22:29;4.38;;;1.33;;
35150;SDS011;55720;51.972;4.624;2022-12-07T15:24:56;5.50;;;0.80;;
35150;SDS011;55720;51.972;4.624;2022-12-07T15:27:21;5.78;;;0.82;;
35150;SDS011;55720;51.972;4.624;2022-12-07T15:29:47;6.38;;;0.77;;
35150;SDS011;55720;51.972;4.624;2022-12-07T15:32:12;5.03;;;0.80;;
35150;SDS011;55720;51.972;4.624;2022-12-07T15:34:37;1.83;;;0.80;;
35150;SDS011;55720;51.972;4.624;2022-12-07T15:37:03;1.10;;;0.70;;
35150;SDS011;55720;51.972;4.624;2022-12-07T15:39:28;2.88;;;0.90;;
35150;SDS011;55720;51.972;4.624;2022-12-07T15:41:54;2.35;;;0.70;;
35150;SDS011;55720;51.972;4.624;2022-12-07T15:44:19;3.95;;;0.85;;
35150;SDS011;55720;51.972;4.624;2022-12-07T15:47:04;3.75;;;0.90;;
35150;SDS011;55720;51.972;4.624;2022-12-07T15:49:30;3.72;;;0.80;;
35150;SDS011;55720;51.972;4.624;2022-12-07T15:51:56;2.95;;;0.77;;
35150;SDS011;55720;51.972;4.624;2022-12-07T15:54:27;7.85;;;1.20;;
35150;SDS011;55720;51.972;4.624;2022-12-07T15:56:54;5.63;;;0.95;;
35150;SDS011;55720;51.972;4.624;2022-12-07T15:59:20;4.38;;;1.08;;
35150;SDS011;55720;51.972;4.624;2022-12-07T16:01:46;6.13;;;1.20;;
35150;SDS011;55720;51.972;4.624;2022-12-07T16:04:12;3.20;;;1.77;;
35150;SDS011;55720;51.972;4.624;2022-12-07T16:06:37;5.88;;;1.50;;
35150;SDS011;55720;51.972;4.624;2022-12-07T16:09:03;3.55;;;1.00;;
35150;SDS011;55720;51.972;4.624;2022-12-07T16:11:29;4.82;;;1.40;;
35150;SDS011;55720;51.972;4.624;2022-12-07T16:13:55;6.53;;;1.40;;
35150;SDS011;55720;51.972;4.624;2022-12-07T16:16:21;4.55;;;1.20;;
35150;SDS011;55720;51.972;4.624;2022-12-07T16:18:49;4.95;;;0.80;;
35150;SDS011;55720;51.972;4.624;2022-12-07T16:21:16;4.82;;;1.17;;
35150;SDS011;55720;51.972;4.624;2022-12-07T16:23:42;2.50;;;0.60;;
35150;SDS011;55720;51.972;4.624;2022-12-07T16:26:09;6.25;;;1.20;;
35150;SDS011;55720;51.972;4.624;2022-12-07T16:28:37;5.88;;;1.63;;
35150;SDS011;55720;51.972;4.624;2022-12-07T16:31:03;6.07;;;2.05;;
35150;SDS011;55720;51.972;4.624;2022-12-07T16:33:35;5.82;;;1.67;;
35150;SDS011;55720;51.972;4.624;2022-12-07T16:36:01;5.35;;;1.83;;
35150;SDS011;55720;51.972;4.624;2022-12-07T16:38:27;4.28;;;1.65;;
35150;SDS011;55720;51.972;4.624;2022-12-07T16:40:53;5.68;;;1.83;;
35150;SDS011;55720;51.972;4.624;2022-12-07T16:43:19;7.00;;;1.90;;
35150;SDS011;55720;51.972;4.624;2022-12-07T16:45:45;4.95;;;1.75;;
35150;SDS011;55720;51.972;4.624;2022-12-07T16:48:13;7.32;;;2.13;;